createdAt,value
2019-04-30T00:01:30.922Z,37.20
2019-04-30T00:04:19.834Z,39.27
2019-04-30T00:06:49.375Z,36.73
2019-04-30T00:09:20.586Z,39.93
2019-04-30T00:11:50.661Z,42.00
2019-04-30T00:14:21.326Z,37.50
2019-04-30T00:16:50.829Z,40.17
2019-04-30T00:19:20.465Z,39.27
2019-04-30T00:21:57.096Z,40.07
2019-04-30T00:24:21.285Z,41.40
2019-04-30T00:26:52.576Z,37.00
2019-04-30T00:29:26.954Z,39.57
2019-04-30T00:31:59.185Z,36.90
2019-04-30T00:34:25.036Z,38.37
2019-04-30T00:36:55.970Z,37.77
2019-04-30T00:39:27.256Z,39.00
2019-04-30T00:41:56.866Z,44.27
2019-04-30T00:44:28.267Z,37.93
2019-04-30T00:47:00.751Z,42.10
2019-04-30T00:49:28.766Z,39.47
2019-04-30T00:51:58.398Z,39.60
2019-04-30T00:54:30.656Z,38.80
2019-04-30T00:57:04.446Z,40.60
2019-04-30T00:59:30.498Z,39.47
2019-04-30T01:02:20.041Z,41.13
2019-04-30T01:04:47.295Z,42.17
2019-04-30T01:07:16.956Z,45.03
2019-04-30T01:09:49.719Z,39.43
2019-04-30T01:12:27.576Z,38.00
2019-04-30T01:14:51.303Z,36.47
2019-04-30T01:17:20.803Z,42.80
2019-04-30T01:19:54.384Z,41.97
2019-04-30T01:22:28.031Z,41.20
2019-04-30T01:24:53.165Z,41.30
2019-04-30T01:27:22.827Z,40.30
2019-04-30T01:29:52.832Z,42.27
2019-04-30T01:32:22.320Z,36.73
2019-04-30T01:34:53.880Z,38.40
2019-04-30T01:37:28.403Z,44.97
2019-04-30T01:39:54.232Z,37.33
2019-04-30T01:42:23.916Z,46.97
2019-04-30T01:44:54.014Z,45.23
2019-04-30T01:47:27.759Z,45.43
2019-04-30T01:49:55.925Z,45.97
2019-04-30T01:52:29.145Z,41.27
2019-04-30T01:54:59.200Z,49.73
2019-04-30T01:57:30.332Z,50.77
2019-04-30T02:00:03.894Z,45.40
2019-04-30T02:02:35.029Z,46.13
2019-04-30T02:05:06.500Z,48.03
2019-04-30T02:07:35.987Z,52.80
2019-04-30T02:10:08.722Z,46.53
2019-04-30T02:12:39.291Z,46.87
2019-04-30T02:15:09.570Z,47.37
2019-04-30T02:17:39.223Z,48.30
2019-04-30T02:20:10.421Z,48.10
2019-04-30T02:22:39.933Z,51.63
2019-04-30T02:25:09.792Z,47.70
2019-04-30T02:27:39.317Z,50.57
2019-04-30T02:30:11.200Z,45.07
2019-04-30T02:32:40.988Z,47.83
2019-04-30T02:35:28.864Z,46.63
2019-04-30T02:38:15.297Z,55.10
2019-04-30T02:40:45.588Z,52.17
2019-04-30T02:43:15.909Z,45.80
2019-04-30T02:45:49.792Z,45.87
2019-04-30T02:48:22.343Z,44.77
2019-04-30T02:50:53.961Z,46.83
2019-04-30T02:53:52.501Z,48.47
2019-04-30T02:56:26.468Z,49.13
2019-04-30T02:58:55.076Z,46.60
2019-04-30T03:01:24.700Z,47.23
2019-04-30T03:03:54.228Z,47.87
2019-04-30T03:06:23.970Z,49.33
2019-04-30T03:08:53.570Z,43.50
2019-04-30T03:11:23.029Z,51.67
2019-04-30T03:13:52.646Z,43.70
2019-04-30T03:16:23.780Z,46.40
2019-04-30T03:19:00.984Z,45.03
2019-04-30T03:21:41.280Z,48.70
2019-04-30T03:24:11.454Z,41.20
2019-04-30T03:26:41.151Z,43.37
2019-04-30T03:29:11.745Z,52.73
2019-04-30T03:31:44.026Z,49.03
2019-04-30T03:34:23.211Z,50.60
2019-04-30T03:36:43.908Z,45.93
2019-04-30T03:39:13.523Z,47.73
2019-04-30T03:41:43.027Z,52.60
2019-04-30T03:44:21.695Z,45.13
2019-04-30T03:46:43.851Z,48.87
2019-04-30T03:49:13.682Z,51.70
2019-04-30T03:51:43.423Z,47.27
2019-04-30T03:54:12.883Z,48.33
2019-04-30T03:56:43.355Z,47.63
2019-04-30T03:59:12.816Z,47.83
2019-04-30T04:01:49.626Z,47.70
2019-04-30T04:04:30.785Z,49.40
2019-04-30T04:07:20.354Z,46.90
2019-04-30T04:09:54.273Z,48.80
2019-04-30T04:12:29.981Z,46.87
2019-04-30T04:15:03.309Z,53.50
2019-04-30T04:17:31.403Z,51.27
2019-04-30T04:20:00.844Z,50.27
2019-04-30T04:22:30.864Z,48.47
2019-04-30T04:25:00.538Z,50.50
2019-04-30T04:27:30.521Z,48.40
2019-04-30T04:30:01.192Z,44.07
2019-04-30T04:32:31.343Z,52.90
2019-04-30T04:35:00.885Z,43.50
2019-04-30T04:37:30.626Z,49.00
2019-04-30T04:40:00.255Z,48.33
2019-04-30T04:42:32.881Z,46.53
2019-04-30T04:45:00.964Z,42.30
2019-04-30T04:47:31.169Z,46.53
2019-04-30T04:50:01.051Z,52.03
2019-04-30T04:52:31.647Z,45.93
2019-04-30T04:55:01.462Z,40.40
2019-04-30T04:57:31.132Z,47.13
2019-04-30T05:00:07.106Z,44.50
2019-04-30T05:02:33.520Z,40.80
2019-04-30T05:05:03.061Z,41.37
2019-04-30T05:07:32.565Z,47.10
2019-04-30T05:10:02.031Z,45.63
2019-04-30T05:12:31.702Z,41.80
2019-04-30T05:15:01.246Z,42.33
2019-04-30T05:17:32.086Z,36.83
2019-04-30T05:20:01.784Z,44.63
2019-04-30T05:22:31.293Z,42.43
2019-04-30T05:25:00.799Z,41.97
2019-04-30T05:27:30.414Z,41.97
2019-04-30T05:29:59.979Z,43.23
2019-04-30T05:32:29.440Z,40.30
2019-04-30T05:34:58.957Z,46.40
2019-04-30T05:37:28.542Z,48.90
2019-04-30T05:39:58.455Z,39.70
2019-04-30T05:42:29.228Z,38.13
2019-04-30T05:44:59.270Z,33.40
2019-04-30T05:47:29.217Z,34.03
2019-04-30T05:49:58.840Z,33.97
2019-04-30T05:52:29.525Z,28.87
2019-04-30T05:55:00.148Z,30.37
2019-04-30T05:57:29.820Z,32.97
2019-04-30T05:59:59.497Z,29.77
2019-04-30T06:02:33.674Z,29.43
2019-04-30T06:05:00.561Z,30.77
2019-04-30T06:07:30.291Z,28.83
2019-04-30T06:10:01.504Z,27.80
2019-04-30T06:12:32.755Z,29.13
2019-04-30T06:15:11.744Z,31.43
2019-04-30T06:17:42.730Z,27.47
2019-04-30T06:20:18.220Z,26.67
2019-04-30T06:22:44.234Z,26.87
2019-04-30T06:25:14.193Z,27.20
2019-04-30T06:27:43.892Z,26.67
2019-04-30T06:30:13.861Z,27.23
2019-04-30T06:32:43.767Z,26.37
2019-04-30T06:35:13.789Z,25.20
2019-04-30T06:37:43.276Z,28.20
2019-04-30T06:40:13.395Z,28.10
2019-04-30T06:42:43.072Z,27.50
2019-04-30T06:45:15.686Z,28.33
2019-04-30T06:47:45.420Z,30.33
2019-04-30T06:50:15.948Z,27.63
2019-04-30T06:52:56.338Z,33.20
2019-04-30T06:55:19.105Z,29.80
2019-04-30T06:57:49.656Z,34.80
2019-04-30T07:00:32.825Z,27.87
2019-04-30T07:02:52.679Z,33.10
2019-04-30T07:05:22.174Z,29.50
2019-04-30T07:08:12.143Z,30.40
2019-04-30T07:10:53.135Z,31.07
2019-04-30T07:13:14.451Z,28.77
2019-04-30T07:15:44.047Z,30.63
2019-04-30T07:18:13.552Z,31.23
2019-04-30T07:20:43.114Z,30.97
2019-04-30T07:23:12.680Z,31.97
2019-04-30T07:25:42.170Z,26.50
2019-04-30T07:28:11.681Z,28.37
2019-04-30T07:30:41.146Z,30.03
2019-04-30T07:33:10.780Z,29.13
2019-04-30T07:35:40.243Z,32.63
2019-04-30T07:38:09.805Z,28.00
2019-04-30T07:40:39.457Z,30.23
2019-04-30T07:43:09.208Z,27.53
2019-04-30T07:45:39.772Z,28.80
2019-04-30T07:48:09.537Z,27.67
2019-04-30T07:50:41.172Z,29.07
2019-04-30T07:53:11.551Z,26.50
2019-04-30T07:55:41.624Z,29.47
2019-04-30T07:58:11.195Z,29.20
2019-04-30T08:00:40.761Z,28.93
2019-04-30T08:03:30.174Z,30.67
2019-04-30T08:06:01.310Z,26.80
2019-04-30T08:08:30.945Z,33.20
2019-04-30T08:11:00.466Z,28.17
2019-04-30T08:13:32.579Z,26.53
2019-04-30T08:16:01.457Z,29.40
2019-04-30T08:18:30.978Z,22.87
2019-04-30T08:21:01.040Z,24.60
2019-04-30T08:23:34.923Z,26.20
2019-04-30T08:26:01.838Z,24.03
2019-04-30T08:28:31.652Z,24.80
2019-04-30T08:31:01.140Z,22.77
2019-04-30T08:33:30.657Z,23.50
2019-04-30T08:36:00.976Z,23.23
2019-04-30T08:38:30.601Z,21.03
2019-04-30T08:41:00.828Z,24.37
2019-04-30T08:43:30.587Z,21.07
2019-04-30T08:46:00.163Z,21.23
2019-04-30T08:48:45.373Z,21.83
2019-04-30T08:51:00.880Z,23.53
2019-04-30T08:53:33.402Z,21.47
2019-04-30T08:56:01.737Z,23.00
2019-04-30T08:58:31.546Z,20.03
2019-04-30T09:01:00.997Z,22.60
2019-04-30T09:03:30.659Z,22.37
2019-04-30T09:06:04.852Z,21.60
2019-04-30T09:08:34.483Z,21.23
2019-04-30T09:11:04.052Z,23.57
2019-04-30T09:13:33.528Z,19.30
2019-04-30T09:16:03.118Z,20.33
2019-04-30T09:18:32.659Z,22.83
2019-04-30T09:21:06.196Z,22.77
2019-04-30T09:23:43.266Z,19.80
2019-04-30T09:26:04.828Z,22.93
2019-04-30T09:28:34.293Z,24.20
2019-04-30T09:31:03.799Z,19.63
2019-04-30T09:33:33.346Z,19.80
2019-04-30T09:36:02.844Z,21.87
2019-04-30T09:38:32.358Z,22.50
2019-04-30T09:41:01.854Z,20.60
2019-04-30T09:43:31.358Z,21.00
2019-04-30T09:46:00.871Z,20.63
2019-04-30T09:48:30.678Z,21.83
2019-04-30T09:51:01.229Z,20.73
2019-04-30T09:53:31.538Z,21.80
2019-04-30T09:56:01.611Z,23.03
2019-04-30T09:58:31.088Z,21.70
2019-04-30T10:01:00.617Z,20.90
2019-04-30T10:03:31.512Z,20.73
2019-04-30T10:06:01.651Z,21.70
2019-04-30T10:08:31.667Z,19.67
2019-04-30T10:11:05.956Z,20.00
2019-04-30T10:13:35.539Z,18.67
2019-04-30T10:16:09.796Z,20.40
2019-04-30T10:18:39.362Z,21.07
2019-04-30T10:21:09.156Z,21.60
2019-04-30T10:23:39.198Z,21.20
2019-04-30T10:26:08.884Z,21.70
2019-04-30T10:28:43.250Z,20.70
2019-04-30T10:31:12.902Z,20.27
2019-04-30T10:33:42.457Z,20.20
2019-04-30T10:36:12.057Z,21.20
2019-04-30T10:38:41.703Z,21.07
2019-04-30T10:41:11.264Z,21.00
2019-04-30T10:43:40.931Z,20.87
2019-04-30T10:46:10.704Z,46.10
2019-04-30T10:48:43.238Z,27.17
2019-04-30T10:51:11.962Z,20.50
2019-04-30T10:53:41.535Z,23.83
2019-04-30T10:56:11.178Z,22.10
2019-04-30T10:58:41.126Z,22.33
2019-04-30T11:01:10.686Z,21.13
2019-04-30T11:03:42.832Z,20.30
2019-04-30T11:06:11.646Z,25.10
2019-04-30T11:08:41.287Z,25.10
2019-04-30T11:11:11.004Z,22.53
2019-04-30T11:13:40.522Z,22.73
2019-04-30T11:16:14.719Z,21.33
2019-04-30T11:18:41.695Z,21.93
2019-04-30T11:21:11.756Z,23.30
2019-04-30T11:23:41.654Z,21.30
2019-04-30T11:26:11.758Z,24.37
2019-04-30T11:28:41.609Z,21.07
2019-04-30T11:31:19.111Z,23.37
2019-04-30T11:33:48.415Z,22.40
2019-04-30T11:36:19.354Z,23.37
2019-04-30T11:38:49.233Z,25.07
2019-04-30T11:41:29.503Z,22.30
2019-04-30T11:43:50.766Z,25.40
2019-04-30T11:46:30.651Z,20.83
2019-04-30T11:49:00.273Z,20.10
2019-04-30T11:51:29.855Z,21.13
2019-04-30T11:53:59.517Z,22.40
2019-04-30T11:56:29.041Z,20.73
2019-04-30T11:58:58.971Z,21.47
2019-04-30T12:01:30.259Z,21.13
2019-04-30T12:04:00.055Z,21.63
2019-04-30T12:06:29.691Z,24.53
2019-04-30T12:08:59.421Z,22.60
2019-04-30T12:11:36.674Z,20.73
2019-04-30T12:14:06.711Z,21.97
2019-04-30T12:16:36.322Z,20.77
2019-04-30T12:19:06.322Z,20.07
2019-04-30T12:21:35.835Z,22.33
2019-04-30T12:24:05.461Z,21.37
2019-04-30T12:26:35.134Z,19.67
2019-04-30T12:29:04.831Z,19.37
2019-04-30T12:31:34.474Z,21.10
2019-04-30T12:34:04.009Z,20.83
2019-04-30T12:36:33.572Z,17.50
2019-04-30T12:39:03.070Z,20.13
2019-04-30T12:41:32.643Z,18.43
2019-04-30T12:44:02.122Z,19.37
2019-04-30T12:46:31.627Z,18.83
2019-04-30T12:49:10.211Z,16.33
2019-04-30T12:51:50.647Z,18.17
2019-04-30T12:54:22.653Z,19.93
2019-04-30T12:57:00.964Z,18.20
2019-04-30T12:59:30.585Z,16.90
2019-04-30T13:02:00.197Z,17.23
2019-04-30T13:04:29.676Z,13.40
2019-04-30T13:07:02.034Z,13.40
2019-04-30T13:09:31.439Z,18.20
2019-04-30T13:12:01.956Z,18.17
2019-04-30T13:14:32.513Z,18.50
2019-04-30T13:17:03.019Z,19.50
2019-04-30T13:19:32.532Z,17.10
2019-04-30T13:22:02.208Z,13.60
2019-04-30T13:24:31.681Z,15.73
2019-04-30T13:27:01.188Z,15.30
2019-04-30T13:37:07.054Z,16.60
2019-04-30T13:39:49.905Z,15.30
2019-04-30T13:42:20.568Z,18.13
2019-04-30T13:45:53.402Z,16.83
2019-04-30T13:48:22.909Z,17.00
2019-04-30T13:50:52.411Z,18.37
2019-04-30T13:53:21.920Z,18.27
2019-04-30T13:55:51.402Z,18.53
2019-04-30T13:58:21.028Z,15.73
2019-04-30T14:00:50.510Z,16.47
2019-04-30T14:03:25.588Z,15.87
2019-04-30T14:05:55.070Z,14.80
2019-04-30T14:08:26.265Z,16.73
2019-04-30T14:10:55.743Z,15.13
2019-04-30T14:13:27.091Z,14.17
2019-04-30T14:15:56.643Z,14.73
2019-04-30T14:18:30.868Z,20.13
2019-04-30T14:21:00.784Z,14.80
2019-04-30T14:23:29.027Z,16.60
2019-04-30T14:26:00.894Z,16.30
2019-04-30T14:28:29.890Z,15.17
2019-04-30T14:31:00.494Z,16.27
2019-04-30T14:33:30.097Z,15.77
2019-04-30T14:36:00.884Z,14.97
2019-04-30T14:38:30.673Z,15.80
2019-04-30T14:41:00.941Z,14.63
2019-04-30T14:43:42.877Z,14.50
2019-04-30T14:46:26.845Z,16.83
2019-04-30T14:49:09.924Z,15.50
2019-04-30T14:51:38.645Z,17.50
2019-04-30T14:54:25.408Z,25.00
2019-04-30T14:56:59.645Z,14.60
2019-04-30T14:59:48.623Z,17.37
2019-04-30T15:02:29.635Z,15.73
2019-04-30T15:04:59.311Z,13.07
2019-04-30T15:07:29.593Z,14.33
2019-04-30T15:09:59.151Z,15.53
2019-04-30T15:12:28.678Z,14.40
2019-04-30T15:14:59.226Z,14.27
2019-04-30T15:17:28.837Z,14.93
2019-04-30T15:19:58.843Z,18.60
2019-04-30T15:22:29.156Z,17.23
2019-04-30T15:24:59.228Z,18.47
2019-04-30T15:27:29.086Z,17.23
2019-04-30T15:29:58.596Z,14.70
2019-04-30T15:32:28.708Z,15.37
2019-04-30T15:34:59.008Z,16.27
2019-04-30T15:37:28.825Z,21.40
2019-04-30T15:39:59.149Z,19.90
2019-04-30T15:42:29.018Z,17.63
2019-04-30T15:44:59.470Z,16.67
2019-04-30T15:47:29.658Z,15.97
2019-04-30T15:50:01.999Z,17.53
2019-04-30T15:52:30.640Z,17.63
2019-04-30T15:55:00.188Z,14.57
2019-04-30T15:57:29.676Z,16.37
2019-04-30T15:59:59.254Z,15.50
2019-04-30T16:02:30.462Z,16.37
2019-04-30T16:05:19.995Z,17.13
2019-04-30T16:07:51.150Z,23.03
2019-04-30T16:10:39.723Z,15.20
2019-04-30T16:13:13.936Z,17.90
2019-04-30T16:15:43.439Z,16.33
2019-04-30T16:18:13.062Z,17.83
2019-04-30T16:20:42.555Z,15.77
2019-04-30T16:23:12.174Z,16.27
2019-04-30T16:25:41.717Z,18.87
2019-04-30T16:28:11.468Z,25.10
2019-04-30T16:30:42.873Z,17.80
2019-04-30T16:33:12.586Z,18.70
2019-04-30T16:35:42.073Z,20.43
2019-04-30T16:38:11.665Z,19.23
2019-04-30T16:40:41.676Z,26.13
2019-04-30T16:43:11.174Z,19.90
2019-04-30T16:45:40.790Z,24.73
2019-04-30T16:48:12.034Z,19.93
2019-04-30T16:50:41.662Z,20.23
2019-04-30T16:53:11.407Z,22.43
2019-04-30T16:55:40.935Z,26.93
2019-04-30T16:58:11.228Z,26.33
2019-04-30T17:00:41.027Z,22.20
2019-04-30T17:03:13.036Z,21.13
2019-04-30T17:05:44.523Z,21.87
2019-04-30T17:08:29.054Z,20.17
2019-04-30T17:11:00.392Z,24.90
2019-04-30T17:13:40.248Z,21.83
2019-04-30T17:16:19.400Z,25.13
2019-04-30T17:18:49.895Z,22.93
2019-04-30T17:21:20.492Z,23.47
2019-04-30T17:23:50.986Z,23.73
2019-04-30T17:26:20.708Z,21.23
2019-04-30T17:28:50.385Z,21.87
2019-04-30T17:31:19.951Z,25.17
2019-04-30T17:33:49.524Z,22.80
2019-04-30T17:36:19.130Z,23.60
2019-04-30T17:38:48.755Z,23.63
2019-04-30T17:41:18.348Z,24.40
2019-04-30T17:43:49.471Z,25.40
2019-04-30T17:46:20.193Z,25.63
2019-04-30T17:48:49.831Z,25.60
2019-04-30T17:51:19.339Z,22.93
2019-04-30T17:54:05.633Z,24.17
2019-04-30T17:56:35.246Z,21.30
2019-04-30T17:59:04.895Z,23.93
2019-04-30T18:01:35.881Z,33.83
2019-04-30T18:04:05.985Z,25.23
2019-04-30T18:06:35.518Z,26.97
2019-04-30T18:09:10.756Z,24.83
2019-04-30T18:11:39.921Z,24.47
2019-04-30T18:14:09.382Z,23.30
2019-04-30T18:16:39.042Z,23.63
2019-04-30T18:19:10.440Z,22.40
2019-04-30T18:21:50.772Z,24.70
2019-04-30T18:24:21.970Z,26.80
2019-04-30T18:26:58.961Z,23.63
2019-04-30T18:29:28.465Z,25.42
2019-04-30T18:31:59.867Z,25.20
2019-04-30T18:34:29.459Z,21.30
2019-04-30T18:36:59.389Z,23.77
2019-04-30T18:39:29.040Z,27.13
2019-04-30T18:41:58.586Z,19.77
2019-04-30T18:44:29.556Z,20.80
2019-04-30T18:46:59.425Z,22.93
2019-04-30T18:49:28.962Z,20.57
2019-04-30T18:51:59.032Z,24.93
2019-04-30T18:54:29.059Z,21.17
2019-04-30T18:56:59.509Z,20.83
2019-04-30T18:59:29.095Z,21.60
2019-04-30T19:01:58.584Z,21.30
2019-04-30T19:04:28.842Z,22.93
2019-04-30T19:07:00.094Z,22.43
2019-04-30T19:09:31.819Z,22.27
2019-04-30T19:12:15.082Z,23.60
2019-04-30T19:14:46.320Z,22.60
2019-04-30T19:17:26.300Z,22.77
2019-04-30T19:20:15.220Z,30.00
2019-04-30T19:22:45.376Z,29.67
2019-04-30T19:25:15.334Z,32.10
2019-04-30T19:27:44.794Z,33.90
2019-04-30T19:30:14.908Z,29.73
2019-04-30T19:32:44.474Z,29.70
2019-04-30T19:35:14.115Z,65.17
2019-04-30T19:37:43.734Z,56.13
2019-04-30T19:40:13.914Z,53.70
2019-04-30T19:42:43.839Z,40.50
2019-04-30T19:45:13.898Z,35.20
2019-04-30T19:47:43.463Z,29.60
2019-04-30T19:50:14.216Z,28.17
2019-04-30T19:52:43.975Z,31.37
2019-04-30T19:55:14.498Z,26.67
2019-04-30T19:57:44.368Z,24.97
2019-04-30T20:00:14.436Z,22.87
2019-04-30T20:02:44.421Z,24.13
2019-04-30T20:05:14.414Z,23.63
2019-04-30T20:07:43.962Z,22.17
2019-04-30T20:10:14.152Z,23.73
2019-04-30T20:12:43.659Z,24.67
2019-04-30T20:15:19.019Z,23.97
2019-04-30T20:17:45.058Z,23.03
2019-04-30T20:20:15.055Z,23.23
2019-04-30T20:22:44.693Z,22.50
2019-04-30T20:25:14.373Z,21.43
2019-04-30T20:27:43.927Z,24.40
2019-04-30T20:30:15.515Z,26.20
2019-04-30T20:32:45.602Z,27.20
2019-04-30T20:35:15.660Z,24.97
2019-04-30T20:38:03.215Z,22.00
2019-04-30T20:40:43.370Z,24.37
2019-04-30T20:43:05.739Z,29.10
2019-04-30T20:45:35.395Z,22.70
2019-04-30T20:48:05.624Z,23.50
2019-04-30T20:50:36.034Z,25.80
2019-04-30T20:53:05.645Z,22.90
2019-04-30T20:55:35.285Z,25.20
2019-04-30T20:58:04.889Z,24.57
2019-04-30T21:00:34.345Z,26.13
2019-04-30T21:03:03.860Z,23.67
2019-04-30T21:05:33.417Z,25.50
2019-04-30T21:08:03.107Z,23.20
2019-04-30T21:10:32.899Z,25.27
2019-04-30T21:13:02.514Z,26.60
2019-04-30T21:15:32.402Z,28.27
2019-04-30T21:18:01.953Z,25.07
2019-04-30T21:20:31.520Z,25.77
2019-04-30T21:23:01.077Z,27.97
2019-04-30T21:25:30.540Z,25.43
2019-04-30T21:28:00.250Z,27.03
2019-04-30T21:30:29.704Z,26.93
2019-04-30T21:33:02.041Z,24.10
2019-04-30T21:35:33.332Z,28.87
2019-04-30T21:38:02.986Z,27.27
2019-04-30T21:40:32.795Z,26.67
2019-04-30T21:43:02.378Z,25.33
2019-04-30T21:45:31.858Z,29.00
2019-04-30T21:48:01.683Z,26.20
2019-04-30T21:50:31.231Z,23.53
2019-04-30T21:53:00.885Z,29.20
2019-04-30T21:55:30.386Z,26.70
2019-04-30T21:57:59.859Z,26.97
2019-04-30T22:00:30.237Z,27.30
2019-04-30T22:03:00.176Z,25.30
2019-04-30T22:05:29.813Z,28.30
2019-04-30T22:07:59.653Z,27.53
2019-04-30T22:10:29.148Z,28.47
2019-04-30T22:12:58.749Z,28.37
2019-04-30T22:15:28.500Z,29.03
2019-04-30T22:17:57.978Z,32.27
2019-04-30T22:20:29.205Z,26.87
2019-04-30T22:22:58.833Z,28.07
2019-04-30T22:25:29.329Z,29.73
2019-04-30T22:27:58.873Z,27.17
2019-04-30T22:30:28.441Z,28.77
2019-04-30T22:32:59.560Z,33.00
2019-04-30T22:35:29.341Z,26.53
2019-04-30T22:38:09.345Z,26.73
2019-04-30T22:40:39.351Z,29.73
2019-04-30T22:43:09.370Z,29.30
2019-04-30T22:45:43.270Z,32.00
2019-04-30T22:48:12.772Z,32.77
2019-04-30T22:50:42.284Z,34.03
2019-04-30T22:53:11.750Z,29.73
2019-04-30T22:55:42.978Z,32.50
2019-04-30T22:58:12.451Z,34.10
2019-04-30T23:00:43.784Z,28.33
2019-04-30T23:03:15.079Z,31.30
2019-04-30T23:05:44.635Z,30.00
2019-04-30T23:08:14.124Z,28.83
2019-04-30T23:10:43.866Z,30.10
2019-04-30T23:13:13.346Z,34.80
2019-04-30T23:15:43.034Z,31.47
2019-04-30T23:18:12.482Z,34.17
2019-04-30T23:20:42.160Z,28.57
2019-04-30T23:23:11.784Z,32.90
2019-04-30T23:25:41.228Z,29.30
2019-04-30T23:28:10.765Z,31.97
2019-04-30T23:30:40.302Z,34.13
2019-04-30T23:33:09.807Z,34.30
2019-04-30T23:35:39.478Z,34.23
2019-04-30T23:38:09.192Z,35.63
2019-04-30T23:40:50.899Z,36.10
2019-04-30T23:43:21.290Z,30.40
2019-04-30T23:45:51.029Z,33.40
2019-04-30T23:48:20.509Z,34.50
2019-04-30T23:50:49.978Z,36.60
2019-04-30T23:53:19.473Z,32.43
2019-04-30T23:55:48.938Z,32.87
2019-04-30T23:58:18.514Z,35.43
